TWB725 RKSS-RKPC
Flight info
| Callsign | TWB725 |
|---|---|
| Flight time | 0h 43m |
| Altitude | 26000 |
| Route | BULT2Z BULTI Y711 DOTOL DOTO2P |
| Aircraft | B38M/L-VGDW/C |
Departure
| Time | 2025-09-10 06:10 |
|---|---|
| Airport | Gimpo International Airport (RKSS) |
Arrival
| Time | 2025-09-10 06:54 |
|---|---|
| Airport | Jeju International Airport (RKPC) |
| Time | Latitude | Longitude | Altitude | Speed | Heading |
|---|---|---|---|---|---|
| 2025-09-10 05:47 | 37.55779 | 126.79918 | 69 ft | 0 kts | 225° |
| 2025-09-10 06:04 | 37.55777 | 126.79915 | 65 ft | 1 kts | 225° |
| 2025-09-10 06:05 | 37.55901 | 126.79595 | 68 ft | 21 kts | 315° |
| 2025-09-10 06:06 | 37.56010 | 126.79459 | 66 ft | 23 kts | 315° |
| 2025-09-10 06:06 | 37.56249 | 126.79154 | 65 ft | 26 kts | 316° |
| 2025-09-10 06:07 | 37.56522 | 126.78812 | 67 ft | 29 kts | 316° |
| 2025-09-10 06:07 | 37.56818 | 126.78442 | 68 ft | 31 kts | 313° |
| 2025-09-10 06:08 | 37.57120 | 126.78059 | 62 ft | 28 kts | 315° |
| 2025-09-10 06:08 | 37.57141 | 126.77950 | 59 ft | 12 kts | 232° |
| 2025-09-10 06:09 | 37.56718 | 126.78269 | 64 ft | 108 kts | 135° |
| 2025-09-10 06:09 | 37.56018 | 126.79170 | 126 ft | 171 kts | 133° |
| 2025-09-10 06:10 | 37.53452 | 126.82386 | 3079 ft | 176 kts | 133° |
| 2025-09-10 06:10 | 37.51588 | 126.84704 | 4512 ft | 205 kts | 133° |
| 2025-09-10 06:11 | 37.49030 | 126.86973 | 5864 ft | 250 kts | 161° |
| 2025-09-10 06:11 | 37.45516 | 126.88409 | 7647 ft | 279 kts | 160° |
| 2025-09-10 06:12 | 37.41698 | 126.89942 | 9430 ft | 298 kts | 161° |
| 2025-09-10 06:12 | 37.38026 | 126.92523 | 10875 ft | 321 kts | 136° |
| 2025-09-10 06:12 | 37.36313 | 126.94462 | 11328 ft | 342 kts | 137° |
| 2025-09-10 06:13 | 37.30524 | 127.00984 | 12719 ft | 401 kts | 138° |
| 2025-09-10 06:14 | 37.24011 | 127.08333 | 14477 ft | 433 kts | 139° |
| 2025-09-10 06:14 | 37.19471 | 127.13449 | 15886 ft | 443 kts | 139° |
| 2025-09-10 06:15 | 37.17235 | 127.15936 | 16511 ft | 447 kts | 142° |
| 2025-09-10 06:15 | 37.11582 | 127.19062 | 17761 ft | 446 kts | 174° |
| 2025-09-10 06:16 | 37.05432 | 127.18735 | 18924 ft | 442 kts | 199° |
| 2025-09-10 06:16 | 37.00110 | 127.15070 | 19936 ft | 439 kts | 225° |
| 2025-09-10 06:17 | 36.93420 | 127.07194 | 21298 ft | 445 kts | 225° |
| 2025-09-10 06:17 | 36.88852 | 127.01907 | 22087 ft | 449 kts | 226° |
| 2025-09-10 06:18 | 36.84272 | 126.96536 | 22782 ft | 453 kts | 226° |
| 2025-09-10 06:18 | 36.81974 | 126.93839 | 23109 ft | 455 kts | 226° |
| 2025-09-10 06:19 | 36.77342 | 126.88408 | 23679 ft | 458 kts | 226° |
| 2025-09-10 06:19 | 36.72106 | 126.83911 | 24214 ft | 470 kts | 204° |
| 2025-09-10 06:20 | 36.65541 | 126.82850 | 24671 ft | 485 kts | 183° |
| 2025-09-10 06:21 | 36.48555 | 126.83402 | 25520 ft | 491 kts | 182° |
| 2025-09-10 06:23 | 36.24744 | 126.82265 | 25950 ft | 488 kts | 189° |
| 2025-09-10 06:25 | 35.95439 | 126.79086 | 25953 ft | 488 kts | 189° |
| 2025-09-10 06:27 | 35.71733 | 126.76520 | 25953 ft | 488 kts | 189° |
| 2025-09-10 06:28 | 35.48074 | 126.73974 | 25943 ft | 488 kts | 189° |
| 2025-09-10 06:31 | 35.17682 | 126.70728 | 25940 ft | 487 kts | 189° |
| 2025-09-10 06:32 | 34.94069 | 126.68222 | 25939 ft | 487 kts | 189° |
| 2025-09-10 06:35 | 34.63932 | 126.65043 | 24243 ft | 464 kts | 189° |
| 2025-09-10 06:35 | 34.57536 | 126.64372 | 22751 ft | 457 kts | 189° |
| 2025-09-10 06:36 | 34.51239 | 126.63712 | 21314 ft | 451 kts | 189° |
| 2025-09-10 06:36 | 34.45024 | 126.63061 | 19896 ft | 444 kts | 189° |
| 2025-09-10 06:36 | 34.41953 | 126.62740 | 19150 ft | 442 kts | 189° |
| 2025-09-10 06:37 | 34.32893 | 126.61795 | 17136 ft | 432 kts | 188° |
| 2025-09-10 06:38 | 34.26955 | 126.61167 | 15974 ft | 421 kts | 190° |
| 2025-09-10 06:38 | 34.21606 | 126.59068 | 15176 ft | 386 kts | 204° |
| 2025-09-10 06:39 | 34.16844 | 126.56778 | 14463 ft | 351 kts | 205° |
| 2025-09-10 06:39 | 34.14630 | 126.55696 | 14132 ft | 336 kts | 205° |
| 2025-09-10 06:39 | 34.10448 | 126.53642 | 13537 ft | 317 kts | 205° |
| 2025-09-10 06:40 | 34.06407 | 126.51659 | 12932 ft | 310 kts | 205° |
| 2025-09-10 06:40 | 34.02464 | 126.49724 | 12336 ft | 303 kts | 205° |
| 2025-09-10 06:41 | 33.96700 | 126.46901 | 11464 ft | 293 kts | 205° |
| 2025-09-10 06:42 | 33.92979 | 126.45080 | 10884 ft | 288 kts | 204° |
| 2025-09-10 06:42 | 33.87498 | 126.42400 | 10059 ft | 282 kts | 204° |
| 2025-09-10 06:43 | 33.85677 | 126.41511 | 9782 ft | 283 kts | 203° |
| 2025-09-10 06:43 | 33.82029 | 126.39731 | 9238 ft | 283 kts | 203° |
| 2025-09-10 06:44 | 33.78383 | 126.37953 | 8665 ft | 283 kts | 202° |
| 2025-09-10 06:44 | 33.76564 | 126.37067 | 8392 ft | 282 kts | 202° |
| 2025-09-10 06:44 | 33.72942 | 126.35303 | 7842 ft | 280 kts | 202° |
| 2025-09-10 06:45 | 33.65836 | 126.31848 | 6762 ft | 270 kts | 202° |
| 2025-09-10 06:46 | 33.64085 | 126.30997 | 6501 ft | 273 kts | 202° |
| 2025-09-10 06:46 | 33.60561 | 126.29286 | 5943 ft | 273 kts | 202° |
| 2025-09-10 06:47 | 33.57068 | 126.27594 | 5400 ft | 269 kts | 202° |
| 2025-09-10 06:47 | 33.53636 | 126.25929 | 4879 ft | 262 kts | 201° |
| 2025-09-10 06:47 | 33.51956 | 126.25116 | 4607 ft | 257 kts | 201° |
| 2025-09-10 06:48 | 33.48770 | 126.23574 | 4129 ft | 237 kts | 201° |
| 2025-09-10 06:49 | 33.43890 | 126.26254 | 3283 ft | 219 kts | 118° |
| 2025-09-10 06:49 | 33.42423 | 126.29486 | 2933 ft | 221 kts | 108° |
| 2025-09-10 06:50 | 33.42264 | 126.31265 | 2874 ft | 216 kts | 78° |
| 2025-09-10 06:50 | 33.43508 | 126.34186 | 2655 ft | 193 kts | 58° |
| 2025-09-10 06:51 | 33.44854 | 126.36818 | 2068 ft | 174 kts | 58° |
| 2025-09-10 06:51 | 33.45462 | 126.38003 | 1831 ft | 158 kts | 58° |
| 2025-09-10 06:52 | 33.47083 | 126.41165 | 1218 ft | 146 kts | 58° |
| 2025-09-10 06:52 | 33.48150 | 126.43248 | 820 ft | 146 kts | 58° |
| 2025-09-10 06:52 | 33.48683 | 126.44286 | 628 ft | 146 kts | 58° |
| 2025-09-10 06:53 | 33.50257 | 126.47365 | 100 ft | 141 kts | 58° |
| 2025-09-10 06:54 | 33.51033 | 126.49018 | 94 ft | 24 kts | 84° |
| 2025-09-10 06:55 | 33.50965 | 126.49386 | 94 ft | 10 kts | 158° |
| 2025-09-10 06:55 | 33.50871 | 126.49287 | 93 ft | 0 kts | 237° |
| 2025-09-10 06:56 | 33.50872 | 126.49283 | 93 ft | 0 kts | 285° |
| 2025-09-10 06:56 | 33.50913 | 126.49276 | 92 ft | 7 kts | 356° |
| 2025-09-10 06:56 | 33.50937 | 126.49263 | 92 ft | 3 kts | 330° |
| 2025-09-10 06:57 | 33.50946 | 126.49257 | 92 ft | 0 kts | 330° |